Time;durP1;ratioP1;P1;durP2;ratioP2;P2;SDS_P1;SDS_P2;PMS_P1;PMS_P2;Temp;Humidity;BMP_temperature;BMP_pressure;BME280_temperature;BME280_humidity;BME280_pressure;Samples;Min_cycle;Max_cycle;Signal;HPM_P1;HPM_P2
2022/07/26 00:00:46;;;;;;;5.60;3.80;;;21.10;99.90;;;;;;5068118;28;20650;-65
2022/07/26 00:03:12;;;;;;;3.73;2.73;;;21.20;99.90;;;;;;5068861;28;20455;-67
2022/07/26 00:05:40;;;;;;;4.90;2.33;;;21.30;99.90;;;;;;5068550;28;20459;-66
2022/07/26 00:08:16;;;;;;;4.90;2.63;;;21.20;99.90;;;;;;5068889;28;20455;-67
2022/07/26 00:10:47;;;;;;;7.10;3.40;;;21.20;99.90;;;;;;5068404;28;20444;-67
2022/07/26 00:13:16;;;;;;;4.80;2.90;;;21.20;99.90;;;;;;5072918;28;20538;-67
2022/07/26 00:15:43;;;;;;;3.87;2.70;;;21.20;99.90;;;;;;5072500;28;20562;-67
2022/07/26 00:18:12;;;;;;;4.97;3.00;;;21.20;99.90;;;;;;5072426;28;20459;-66
2022/07/26 00:20:38;;;;;;;7.37;3.13;;;21.20;99.90;;;;;;5071869;28;20483;-66
2022/07/26 00:23:05;;;;;;;7.47;3.50;;;21.20;99.90;;;;;;5072094;28;20447;-66
2022/07/26 00:25:32;;;;;;;4.40;3.20;;;21.30;99.90;;;;;;5072443;28;20566;-65
2022/07/26 00:27:59;;;;;;;3.90;2.67;;;21.30;99.90;;;;;;5072808;28;20443;-66
2022/07/26 00:30:27;;;;;;;5.57;4.20;;;21.30;99.90;;;;;;5075766;28;20940;-66
2022/07/26 00:32:54;;;;;;;4.67;2.40;;;21.30;99.90;;;;;;5082782;28;20525;-66
2022/07/26 00:35:23;;;;;;;7.27;3.20;;;21.40;99.90;;;;;;5072037;28;20471;-67
2022/07/26 00:37:49;;;;;;;5.47;2.80;;;21.40;99.90;;;;;;5072501;28;20979;-66
2022/07/26 00:40:17;;;;;;;3.40;2.67;;;21.50;99.90;;;;;;5071466;28;21037;-66
2022/07/26 00:42:44;;;;;;;4.93;2.70;;;21.50;99.90;;;;;;5072358;28;20454;-67
2022/07/26 00:45:12;;;;;;;3.80;2.40;;;21.60;99.90;;;;;;5071745;28;20475;-67
2022/07/26 00:47:39;;;;;;;5.23;2.87;;;21.70;99.90;;;;;;5077384;28;20452;-67
2022/07/26 00:50:09;;;;;;;5.17;2.60;;;21.80;99.90;;;;;;5071656;28;20996;-67
2022/07/26 00:52:37;;;;;;;4.40;2.37;;;21.90;99.90;;;;;;5072406;28;20949;-66
2022/07/26 00:55:06;;;;;;;3.30;2.37;;;22.00;99.90;;;;;;5071783;28;20467;-67
2022/07/26 00:57:34;;;;;;;4.40;2.80;;;22.00;99.90;;;;;;5072207;28;20458;-67
2022/07/26 01:00:01;;;;;;;5.17;2.50;;;21.90;99.90;;;;;;5071517;28;20466;-66
2022/07/26 01:02:28;;;;;;;5.73;2.60;;;22.00;99.90;;;;;;5072212;28;20447;-67
2022/07/26 01:04:54;;;;;;;5.97;2.07;;;22.10;99.90;;;;;;5071581;28;20447;-67
2022/07/26 01:07:22;;;;;;;3.90;2.80;;;22.20;99.90;;;;;;5071975;28;20455;-66
2022/07/26 01:09:50;;;;;;;4.20;1.80;;;22.20;99.90;;;;;;5071355;28;20457;-66
2022/07/26 01:12:17;;;;;;;2.90;2.00;;;22.30;99.90;;;;;;5071595;28;20447;-66
2022/07/26 01:14:45;;;;;;;3.63;2.40;;;22.10;99.90;;;;;;5071728;28;20451;-66
2022/07/26 01:17:13;;;;;;;5.83;3.10;;;21.80;99.90;;;;;;5071720;28;20971;-66
2022/07/26 01:19:40;;;;;;;6.80;3.90;;;21.00;99.90;;;;;;5071927;28;21139;-65
2022/07/26 01:22:08;;;;;;;8.20;3.90;;;20.20;99.90;;;;;;5071038;28;20483;-66
2022/07/26 01:24:35;;;;;;;6.07;3.20;;;19.60;99.90;;;;;;5071418;28;20458;-63
2022/07/26 01:27:02;;;;;;;6.80;4.50;;;19.20;99.90;;;;;;5071638;28;20450;-65
2022/07/26 01:29:28;;;;;;;5.50;4.27;;;18.80;99.90;;;;;;5071806;28;20451;-66
2022/07/26 01:31:55;;;;;;;6.63;4.90;;;18.60;99.90;;;;;;5071036;28;20452;-66
2022/07/26 01:34:22;;;;;;;9.07;5.80;;;18.60;99.90;;;;;;5073197;28;20443;-66
2022/07/26 01:36:49;;;;;;;9.30;6.30;;;18.70;99.90;;;;;;5071506;28;20467;-66
2022/07/26 01:39:18;;;;;;;13.03;6.37;;;18.90;99.90;;;;;;5071298;28;20459;-66
2022/07/26 01:41:44;;;;;;;6.77;6.07;;;18.90;99.90;;;;;;5070313;28;20487;-66
2022/07/26 01:44:11;;;;;;;7.33;5.43;;;18.90;99.90;;;;;;5065975;28;20808;-66
2022/07/26 01:46:38;;;;;;;6.73;5.70;;;18.70;99.90;;;;;;5070585;28;20973;-66
2022/07/26 01:49:06;;;;;;;13.93;6.10;;;18.90;99.90;;;;;;5070822;28;20455;-67
2022/07/26 01:51:33;;;;;;;12.23;6.20;;;18.90;99.90;;;;;;5070215;28;20981;-66
2022/07/26 01:54:00;;;;;;;6.80;5.40;;;18.90;99.90;;;;;;5071018;28;20458;-66
2022/07/26 01:56:28;;;;;;;5.83;5.03;;;19.00;99.90;;;;;;5070824;28;20481;-66
2022/07/26 01:58:55;;;;;;;7.77;5.70;;;19.00;99.90;;;;;;5070809;28;20451;-66
2022/07/26 02:01:22;;;;;;;6.10;5.50;;;19.00;99.90;;;;;;5070046;28;20486;-66
2022/07/26 02:03:48;;;;;;;6.10;5.50;;;18.90;99.90;;;;;;5071020;28;20492;-66
2022/07/26 02:06:15;;;;;;;7.13;6.00;;;18.90;99.90;;;;;;5070193;28;20467;-66
2022/07/26 02:08:42;;;;;;;6.90;6.20;;;18.90;99.90;;;;;;5070817;28;20872;-66
2022/07/26 02:11:09;;;;;;;8.50;6.40;;;18.90;99.90;;;;;;5069861;28;20952;-66
2022/07/26 02:13:39;;;;;;;7.83;6.03;;;18.90;99.90;;;;;;5070826;28;20455;-66
2022/07/26 02:16:08;;;;;;;7.80;5.53;;;19.00;99.90;;;;;;5070319;28;20538;-66
2022/07/26 02:18:37;;;;;;;9.37;5.87;;;18.90;99.90;;;;;;5070634;28;20439;-66
2022/07/26 02:21:04;;;;;;;8.17;6.27;;;19.00;99.90;;;;;;5069464;28;20524;-67
2022/07/26 02:23:32;;;;;;;8.50;6.73;;;19.00;99.90;;;;;;5070928;28;20455;-66
2022/07/26 02:25:59;;;;;;;6.73;6.00;;;18.90;99.90;;;;;;5070152;28;20471;-66
2022/07/26 02:28:26;;;;;;;13.47;6.33;;;18.90;99.90;;;;;;5070601;28;20650;-66
2022/07/26 02:30:54;;;;;;;8.67;6.97;;;18.80;99.90;;;;;;5069621;28;20466;-66
2022/07/26 02:33:21;;;;;;;8.83;6.20;;;18.90;99.90;;;;;;5070691;28;20454;-65
2022/07/26 02:35:48;;;;;;;7.20;5.87;;;18.90;99.90;;;;;;5068793;28;20529;-66
2022/07/26 02:38:16;;;;;;;6.67;5.27;;;18.90;99.90;;;;;;5070187;28;20451;-64
2022/07/26 02:40:43;;;;;;;6.47;5.70;;;18.90;99.90;;;;;;5069408;28;20493;-67
2022/07/26 02:43:11;;;;;;;7.50;5.23;;;18.90;99.90;;;;;;5070751;28;20447;-66
2022/07/26 02:45:38;;;;;;;6.57;5.30;;;18.90;99.90;;;;;;5070640;28;20459;-67
2022/07/26 02:48:07;;;;;;;6.43;5.43;;;18.90;99.90;;;;;;5070592;28;20446;-66
2022/07/26 02:50:34;;;;;;;6.53;5.57;;;18.80;99.90;;;;;;5070374;28;20447;-66
2022/07/26 02:53:01;;;;;;;11.20;5.13;;;18.80;99.90;;;;;;5070558;28;20534;-65
2022/07/26 02:55:27;;;;;;;7.33;5.70;;;18.70;99.90;;;;;;5069887;28;20475;-67
2022/07/26 02:57:54;;;;;;;7.40;5.07;;;18.80;99.90;;;;;;5069965;28;20451;-65
2022/07/26 03:00:23;;;;;;;5.80;4.90;;;18.70;99.90;;;;;;5069134;28;20462;-66
2022/07/26 03:02:51;;;;;;;8.10;5.57;;;18.70;99.90;;;;;;5069707;28;20451;-67
2022/07/26 03:05:19;;;;;;;7.77;6.27;;;18.80;99.90;;;;;;5069668;28;20463;-67
2022/07/26 03:07:46;;;;;;;7.00;5.00;;;18.70;99.90;;;;;;5070014;28;20458;-66
2022/07/26 03:10:13;;;;;;;8.63;6.90;;;18.70;99.90;;;;;;5068887;28;20497;-67
2022/07/26 03:12:41;;;;;;;8.83;6.37;;;18.70;99.90;;;;;;5069901;28;20486;-67
2022/07/26 03:15:08;;;;;;;7.87;5.60;;;18.60;99.90;;;;;;5069082;28;20470;-66
2022/07/26 03:17:35;;;;;;;8.37;6.27;;;18.60;99.90;;;;;;5069808;28;20447;-67
2022/07/26 03:20:03;;;;;;;6.70;5.43;;;18.60;99.90;;;;;;5068893;28;20452;-66
2022/07/26 03:22:31;;;;;;;9.33;5.20;;;18.60;99.90;;;;;;5069768;28;20518;-66
2022/07/26 03:24:58;;;;;;;8.77;6.30;;;18.50;99.90;;;;;;5069251;28;20489;-67
2022/07/26 03:27:25;;;;;;;7.80;6.50;;;18.50;99.90;;;;;;5069691;28;20951;-66
2022/07/26 03:29:52;;;;;;;6.97;5.70;;;18.50;99.90;;;;;;5068706;28;20458;-66
2022/07/26 03:32:18;;;;;;;8.40;6.13;;;18.40;99.90;;;;;;5069402;28;20451;-66
2022/07/26 03:34:45;;;;;;;7.43;5.80;;;18.40;99.90;;;;;;5069067;28;20443;-67
2022/07/26 03:37:12;;;;;;;6.00;5.30;;;18.40;99.90;;;;;;5069647;28;20455;-67
2022/07/26 03:39:40;;;;;;;6.63;5.93;;;18.40;99.90;;;;;;5069494;28;20985;-67
2022/07/26 03:42:07;;;;;;;6.47;5.57;;;18.40;99.90;;;;;;5068505;28;20479;-67
2022/07/26 03:44:34;;;;;;;10.23;6.40;;;18.30;99.90;;;;;;5068976;28;20447;-67
2022/07/26 03:47:01;;;;;;;9.73;6.57;;;18.30;99.90;;;;;;5070477;28;20467;-67
2022/07/26 03:49:27;;;;;;;8.30;7.50;;;18.30;99.90;;;;;;5073662;28;20451;-67
2022/07/26 03:51:55;;;;;;;8.57;6.90;;;18.30;99.90;;;;;;5072686;28;20447;-66
2022/07/26 03:54:23;;;;;;;7.53;6.50;;;18.30;99.90;;;;;;5073131;28;20463;-67
2022/07/26 03:56:54;;;;;;;7.07;6.17;;;18.30;99.90;;;;;;5073069;28;20567;-67
2022/07/26 03:59:22;;;;;;;7.00;5.93;;;18.30;99.90;;;;;;5073250;28;20992;-67
2022/07/26 04:01:50;;;;;;;8.97;6.57;;;18.30;99.90;;;;;;5072099;28;20487;-65
2022/07/26 04:04:18;;;;;;;7.20;6.33;;;18.20;99.90;;;;;;5073053;28;20457;-64
2022/07/26 04:06:46;;;;;;;7.47;5.90;;;18.30;99.90;;;;;;5072948;28;20466;-66
2022/07/26 04:09:13;;;;;;;13.67;6.97;;;18.30;99.90;;;;;;5073088;28;20561;-66
2022/07/26 04:11:41;;;;;;;6.17;4.80;;;18.20;99.90;;;;;;5066265;28;20439;-66
2022/07/26 04:14:09;;;;;;;6.47;5.17;;;18.20;99.90;;;;;;5072802;28;20443;-66
2022/07/26 04:16:36;;;;;;;6.87;5.30;;;18.20;99.90;;;;;;5072312;28;20478;-66
2022/07/26 04:19:03;;;;;;;5.77;5.23;;;18.20;99.90;;;;;;5072418;28;20458;-66
2022/07/26 04:21:30;;;;;;;8.00;5.83;;;18.10;99.90;;;;;;5071777;28;20479;-66
2022/07/26 04:23:57;;;;;;;8.20;6.40;;;18.00;99.90;;;;;;5069271;28;20451;-66
2022/07/26 04:26:24;;;;;;;8.40;6.20;;;17.90;99.90;;;;;;5072115;28;20451;-66
2022/07/26 04:28:51;;;;;;;7.13;6.10;;;17.90;99.90;;;;;;5072413;28;20454;-66
2022/07/26 04:31:19;;;;;;;7.23;5.60;;;17.80;99.90;;;;;;5071562;28;20439;-66
2022/07/26 04:33:46;;;;;;;6.33;5.73;;;17.90;99.90;;;;;;5072318;28;20513;-66
2022/07/26 04:36:13;;;;;;;7.23;6.20;;;17.80;99.90;;;;;;5071750;28;20479;-66
2022/07/26 04:38:40;;;;;;;8.80;6.20;;;17.80;99.90;;;;;;5072430;28;20451;-66
2022/07/26 04:41:07;;;;;;;6.10;5.53;;;17.80;99.90;;;;;;5071595;28;20472;-68
2022/07/26 04:43:33;;;;;;;9.57;7.47;;;17.80;99.90;;;;;;5072360;28;20453;-67
2022/07/26 04:46:01;;;;;;;8.97;6.63;;;17.80;99.90;;;;;;5071482;28;20501;-66
2022/07/26 04:48:29;;;;;;;9.03;6.47;;;17.80;99.90;;;;;;5072127;28;20467;-68
2022/07/26 04:50:56;;;;;;;8.30;7.50;;;17.70;99.90;;;;;;5071061;28;20513;-65
2022/07/26 04:53:22;;;;;;;7.67;6.97;;;17.70;99.90;;;;;;5072320;28;20450;-68
2022/07/26 04:55:49;;;;;;;10.67;6.60;;;17.80;99.90;;;;;;5071732;28;20469;-68
2022/07/26 04:58:16;;;;;;;8.23;6.60;;;17.80;99.90;;;;;;5071732;28;20453;-66
2022/07/26 05:00:43;;;;;;;8.87;6.80;;;17.80;99.90;;;;;;5069512;28;20977;-67
2022/07/26 05:03:09;;;;;;;8.83;6.37;;;17.80;99.90;;;;;;5071387;28;20485;-68
2022/07/26 05:05:38;;;;;;;11.93;7.13;;;17.80;99.90;;;;;;5066478;28;20478;-67
2022/07/26 05:08:05;;;;;;;7.00;5.60;;;17.90;99.90;;;;;;5061012;28;20448;-68
2022/07/26 05:10:34;;;;;;;7.47;6.77;;;18.00;99.90;;;;;;5070941;28;20462;-67
2022/07/26 05:13:01;;;;;;;9.53;6.43;;;18.10;99.90;;;;;;5066611;28;20451;-69
2022/07/26 05:15:28;;;;;;;6.73;6.07;;;18.30;99.90;;;;;;5069538;28;20512;-67
2022/07/26 05:17:56;;;;;;;7.33;6.63;;;18.60;99.90;;;;;;5069423;28;21183;-67
2022/07/26 05:20:24;;;;;;;8.50;4.03;;;18.80;99.90;;;;;;5061043;28;21297;-67
2022/07/26 05:22:52;;;;;;;6.33;4.73;;;18.80;99.90;;;;;;5069428;28;20487;-64
2022/07/26 05:25:19;;;;;;;8.33;4.43;;;18.90;99.90;;;;;;5067952;28;20533;-65
2022/07/26 05:27:46;;;;;;;4.20;3.70;;;19.10;99.90;;;;;;5070469;28;20436;-68
2022/07/26 05:30:13;;;;;;;4.47;3.33;;;19.20;99.90;;;;;;5071051;28;20538;-68
2022/07/26 05:32:40;;;;;;;5.23;3.27;;;19.30;99.90;;;;;;5071591;28;20953;-68
2022/07/26 05:35:08;;;;;;;5.53;3.27;;;19.40;99.90;;;;;;5071479;28;20816;-66
2022/07/26 05:37:35;;;;;;;5.03;3.57;;;19.40;99.90;;;;;;5071691;28;20463;-68
2022/07/26 05:40:04;;;;;;;3.93;3.37;;;19.60;99.90;;;;;;5070509;28;20457;-68
2022/07/26 05:42:30;;;;;;;7.23;3.43;;;19.60;99.90;;;;;;5071587;28;20479;-69
2022/07/26 05:44:57;;;;;;;5.23;3.50;;;19.70;99.90;;;;;;5070916;28;20474;-68
2022/07/26 05:47:25;;;;;;;6.63;4.00;;;19.70;99.90;;;;;;5071392;28;20443;-69
2022/07/26 05:49:52;;;;;;;5.93;3.80;;;19.70;99.90;;;;;;5070815;28;20450;-68
2022/07/26 05:52:18;;;;;;;4.47;3.63;;;19.70;99.90;;;;;;5071289;28;20443;-68
2022/07/26 05:54:45;;;;;;;4.40;4.00;;;19.70;99.90;;;;;;5070716;28;20452;-67
2022/07/26 05:57:13;;;;;;;4.87;3.30;;;19.70;99.90;;;;;;5068229;28;20450;-67
2022/07/26 05:59:40;;;;;;;5.53;3.50;;;19.70;99.90;;;;;;5068585;28;20488;-67
2022/07/26 06:02:07;;;;;;;5.63;3.60;;;19.70;99.90;;;;;;5070253;28;20838;-68
2022/07/26 06:04:34;;;;;;;4.40;4.00;;;19.60;99.90;;;;;;5070590;28;20450;-68
2022/07/26 06:07:01;;;;;;;5.67;4.17;;;19.50;99.90;;;;;;5070441;28;20473;-68
2022/07/26 06:09:28;;;;;;;5.37;3.47;;;19.50;99.90;;;;;;5069860;28;20443;-68
2022/07/26 06:11:55;;;;;;;4.83;4.00;;;19.50;99.90;;;;;;5067885;28;20454;-68
2022/07/26 06:14:23;;;;;;;4.03;3.20;;;19.60;99.90;;;;;;5063988;28;20449;-68
2022/07/26 06:16:50;;;;;;;7.53;3.87;;;19.60;99.90;;;;;;5070167;28;20465;-68
2022/07/26 06:19:17;;;;;;;4.33;3.60;;;19.70;99.90;;;;;;5070885;28;20853;-69
2022/07/26 06:21:45;;;;;;;3.97;3.57;;;19.80;99.90;;;;;;5068882;28;20484;-68
2022/07/26 06:24:12;;;;;;;4.17;2.87;;;19.80;99.90;;;;;;5070623;28;20439;-68
2022/07/26 06:26:39;;;;;;;4.40;3.40;;;19.90;99.90;;;;;;5070209;28;20462;-68
2022/07/26 06:29:06;;;;;;;4.20;3.20;;;19.90;99.90;;;;;;5059806;28;20454;-69
2022/07/26 06:31:34;;;;;;;4.30;3.10;;;20.00;99.90;;;;;;5068289;28;20447;-68
2022/07/26 06:34:01;;;;;;;6.33;3.17;;;20.00;99.90;;;;;;5065412;28;20440;-68
2022/07/26 06:36:28;;;;;;;4.27;3.00;;;20.10;99.90;;;;;;5061993;28;20475;-69
2022/07/26 06:38:55;;;;;;;4.83;3.30;;;20.10;99.90;;;;;;5066753;28;20446;-69
2022/07/26 06:41:22;;;;;;;6.07;3.33;;;20.20;99.90;;;;;;5066689;28;20534;-69
2022/07/26 06:43:48;;;;;;;5.50;2.67;;;20.30;99.90;;;;;;5065234;28;20494;-69
2022/07/26 06:46:15;;;;;;;4.70;2.97;;;20.40;99.90;;;;;;5065338;28;20474;-68
2022/07/26 06:48:43;;;;;;;3.50;2.70;;;20.40;99.90;;;;;;5064683;28;20451;-69
2022/07/26 06:51:10;;;;;;;3.80;2.83;;;20.50;99.90;;;;;;5063147;28;20446;-69
2022/07/26 06:53:37;;;;;;;5.37;2.73;;;20.60;99.90;;;;;;5070059;28;20538;-69
2022/07/26 06:56:05;;;;;;;3.50;2.57;;;20.70;99.90;;;;;;5064477;28;20476;-68
2022/07/26 06:58:32;;;;;;;3.40;2.40;;;20.70;99.90;;;;;;5064175;28;20828;-67
2022/07/26 07:00:58;;;;;;;6.30;2.50;;;20.80;99.90;;;;;;5069147;28;20525;-69
2022/07/26 07:03:25;;;;;;;4.87;2.20;;;20.90;99.90;;;;;;5062367;28;20989;-69
2022/07/26 07:05:53;;;;;;;3.63;2.00;;;20.90;99.90;;;;;;5065899;28;20482;-69
2022/07/26 07:08:21;;;;;;;4.43;2.30;;;21.00;99.90;;;;;;5068309;28;20439;-69
2022/07/26 07:10:48;;;;;;;5.07;1.97;;;21.10;99.90;;;;;;5059746;28;20551;-69
2022/07/26 07:13:15;;;;;;;3.30;1.50;;;21.10;99.90;;;;;;5060414;28;20448;-69
2022/07/26 07:15:42;;;;;;;3.67;1.77;;;21.20;99.90;;;;;;5063497;28;20562;-69
2022/07/26 07:18:09;;;;;;;8.67;2.23;;;21.40;99.90;;;;;;5069265;28;20454;-69
2022/07/26 07:20:36;;;;;;;3.00;1.70;;;21.40;99.90;;;;;;5057743;28;20827;-69
2022/07/26 07:23:04;;;;;;;5.33;2.30;;;21.60;99.90;;;;;;5069309;28;20475;-69
2022/07/26 07:25:31;;;;;;;3.13;1.70;;;21.70;99.90;;;;;;5066442;28;20468;-69
2022/07/26 07:27:58;;;;;;;3.57;1.63;;;21.80;99.90;;;;;;5065772;28;20486;-69
2022/07/26 07:30:25;;;;;;;2.73;1.83;;;21.90;99.90;;;;;;5063288;28;20841;-69
2022/07/26 07:32:52;;;;;;;3.67;1.97;;;22.00;99.90;;;;;;5069609;28;20447;-69
2022/07/26 07:35:19;;;;;;;2.43;1.50;;;22.10;99.90;;;;;;5069075;28;20467;-69
2022/07/26 07:37:46;;;;;;;6.63;3.57;;;22.20;99.90;;;;;;5070103;28;20469;-68
2022/07/26 07:40:15;;;;;;;4.00;1.67;;;22.20;99.90;;;;;;5068847;28;20530;-69
2022/07/26 07:42:41;;;;;;;4.50;2.00;;;22.10;99.90;;;;;;5069037;28;20479;-70
2022/07/26 07:45:10;;;;;;;3.83;1.57;;;22.10;99.90;;;;;;5069205;28;20474;-69
2022/07/26 07:47:37;;;;;;;2.70;1.27;;;22.10;99.90;;;;;;5069496;28;20558;-70
2022/07/26 07:50:04;;;;;;;4.60;1.53;;;22.30;99.90;;;;;;5057597;28;20459;-69
2022/07/26 07:52:31;;;;;;;3.40;1.83;;;22.40;99.90;;;;;;5069565;28;20477;-69
2022/07/26 07:54:58;;;;;;;3.97;1.57;;;22.50;99.90;;;;;;5069046;28;20451;-69
2022/07/26 07:57:26;;;;;;;4.47;1.67;;;22.50;99.90;;;;;;5069348;28;20949;-69
2022/07/26 07:59:53;;;;;;;5.50;1.90;;;22.60;99.90;;;;;;5068493;28;20840;-69
2022/07/26 08:02:20;;;;;;;4.30;1.60;;;22.60;99.90;;;;;;5067793;28;21145;-69
2022/07/26 08:04:46;;;;;;;3.23;1.87;;;22.60;99.90;;;;;;5068893;28;20454;-69
2022/07/26 08:07:13;;;;;;;5.40;1.47;;;22.60;99.90;;;;;;5066634;28;20447;-69
2022/07/26 08:09:40;;;;;;;4.13;1.43;;;22.70;99.90;;;;;;5062171;28;20443;-69
2022/07/26 08:12:07;;;;;;;3.00;1.50;;;22.80;99.90;;;;;;5057843;28;20538;-70
2022/07/26 08:14:35;;;;;;;5.40;1.67;;;22.90;99.90;;;;;;5065569;28;21171;-69
2022/07/26 08:17:02;;;;;;;5.57;1.67;;;23.00;99.90;;;;;;5064727;28;21016;-70
2022/07/26 08:19:29;;;;;;;7.03;1.57;;;23.10;99.90;;;;;;5063518;28;20452;-70
2022/07/26 08:21:55;;;;;;;2.77;1.60;;;23.20;99.90;;;;;;5064794;28;20988;-67
2022/07/26 08:24:22;;;;;;;4.60;1.60;;;23.20;99.90;;;;;;5059589;28;20475;-70
2022/07/26 08:26:50;;;;;;;3.47;1.40;;;23.30;99.90;;;;;;5048996;28;20471;-67
2022/07/26 08:29:17;;;;;;;2.53;1.13;;;23.40;99.90;;;;;;5049078;28;20559;-67
2022/07/26 08:31:45;;;;;;;3.23;1.40;;;23.50;99.90;;;;;;5054048;28;20443;-67
2022/07/26 08:34:12;;;;;;;4.17;1.27;;;23.40;99.60;;;;;;5061158;28;20440;-68
2022/07/26 08:36:38;;;;;;;3.00;1.60;;;23.30;99.50;;;;;;5072469;28;20481;-67
2022/07/26 08:39:06;;;;;;;2.83;1.50;;;23.40;99.90;;;;;;5071581;28;20451;-69
2022/07/26 08:41:33;;;;;;;3.37;1.50;;;23.50;99.00;;;;;;5066701;28;20949;-68
2022/07/26 08:44:06;;;;;;;3.83;1.67;;;23.50;98.80;;;;;;5066068;28;20471;-70
2022/07/26 08:46:36;;;;;;;2.73;1.10;;;23.60;99.10;;;;;;5072431;28;20471;-67
2022/07/26 08:49:04;;;;;;;2.53;1.20;;;23.60;98.40;;;;;;5071404;28;20440;-69
2022/07/26 08:51:32;;;;;;;2.93;1.50;;;23.50;98.80;;;;;;5062611;28;21159;-67
2022/07/26 08:54:01;;;;;;;3.13;1.50;;;23.60;97.90;;;;;;5063262;28;20455;-68
2022/07/26 08:56:28;;;;;;;3.93;1.60;;;23.60;97.90;;;;;;5064838;28;20487;-68
2022/07/26 08:58:55;;;;;;;2.20;1.20;;;23.70;98.70;;;;;;5069220;28;20535;-70
2022/07/26 09:01:22;;;;;;;5.20;1.50;;;23.80;97.90;;;;;;5066042;28;20446;-69
2022/07/26 09:03:49;;;;;;;3.27;1.50;;;24.00;97.50;;;;;;5068758;28;20566;-70
2022/07/26 09:06:19;;;;;;;3.93;1.43;;;24.00;97.70;;;;;;5065751;28;20460;-70
2022/07/26 09:08:48;;;;;;;3.17;1.73;;;24.10;97.10;;;;;;5067219;28;20450;-70
2022/07/26 09:11:33;;;;;;;5.00;1.70;;;24.00;97.30;;;;;;5062655;28;20443;-69
2022/07/26 09:14:01;;;;;;;3.43;1.20;;;24.00;96.60;;;;;;5065496;28;20447;-69
2022/07/26 09:16:29;;;;;;;5.83;1.40;;;24.00;96.80;;;;;;5069736;28;20462;-69
2022/07/26 09:19:13;;;;;;;2.90;1.60;;;24.10;97.00;;;;;;5072040;28;20818;-68
2022/07/26 09:21:41;;;;;;;3.30;1.30;;;24.00;96.80;;;;;;5069779;28;20449;-66
2022/07/26 09:24:09;;;;;;;3.30;1.23;;;24.20;96.90;;;;;;5065783;28;20481;-69
2022/07/26 09:26:36;;;;;;;2.80;1.40;;;24.40;96.00;;;;;;5067823;28;21279;-69
2022/07/26 09:29:08;;;;;;;5.90;1.50;;;24.40;96.30;;;;;;5067192;28;20944;-69
2022/07/26 09:31:35;;;;;;;2.90;1.33;;;24.30;95.10;;;;;;5069993;28;20447;-70
2022/07/26 09:34:03;;;;;;;2.00;1.10;;;24.20;95.70;;;;;;5071628;28;20436;-68
2022/07/26 09:36:30;;;;;;;5.27;1.33;;;24.20;95.50;;;;;;5070709;28;20479;-69
2022/07/26 09:39:01;;;;;;;2.20;1.20;;;24.10;95.50;;;;;;5060899;28;20451;-69
2022/07/26 09:41:30;;;;;;;3.57;1.67;;;24.20;95.90;;;;;;5070941;28;20455;-69
2022/07/26 09:43:59;;;;;;;3.10;1.63;;;24.30;94.80;;;;;;5070821;28;20555;-69
2022/07/26 09:46:28;;;;;;;2.87;1.50;;;24.30;94.70;;;;;;5070655;28;20473;-68
2022/07/26 09:48:56;;;;;;;5.00;1.30;;;24.40;95.10;;;;;;5064767;28;20456;-69
2022/07/26 09:51:37;;;;;;;3.57;1.40;;;24.50;94.90;;;;;;5064974;28;20921;-69
2022/07/26 09:54:06;;;;;;;2.77;1.20;;;24.60;94.40;;;;;;5065082;28;20847;-66
2022/07/26 09:56:44;;;;;;;4.00;1.17;;;24.50;94.20;;;;;;5064543;28;20455;-69
2022/07/26 09:59:13;;;;;;;5.40;1.67;;;24.50;94.60;;;;;;5067804;28;20439;-69
2022/07/26 10:01:40;;;;;;;3.70;1.20;;;24.80;94.70;;;;;;5070460;28;20471;-70
2022/07/26 10:04:07;;;;;;;5.87;1.57;;;25.30;93.80;;;;;;5070899;28;20500;-69
2022/07/26 10:06:34;;;;;;;4.07;1.37;;;25.80;93.90;;;;;;5068256;28;20521;-70
2022/07/26 10:09:01;;;;;;;4.30;1.30;;;26.20;92.80;;;;;;5064556;28;20447;-69
2022/07/26 10:11:36;;;;;;;3.70;1.33;;;26.40;92.90;;;;;;5069885;28;20943;-69
2022/07/26 10:14:37;;;;;;;5.60;1.33;;;26.20;91.70;;;;;;5071057;28;20443;-69
2022/07/26 10:17:46;;;;;;;3.30;1.37;;;26.10;91.80;;;;;;5070866;28;20516;-69
2022/07/26 10:20:44;;;;;;;3.80;1.40;;;26.20;92.70;;;;;;5058027;28;20447;-67
2022/07/26 10:23:42;;;;;;;4.50;1.70;;;26.30;92.10;;;;;;5050440;28;20495;-70
2022/07/26 10:26:12;;;;;;;3.00;1.23;;;26.50;91.50;;;;;;5049901;28;20474;-69
2022/07/26 10:28:41;;;;;;;4.53;1.33;;;26.60;91.20;;;;;;5050768;28;20479;-70
2022/07/26 10:31:25;;;;;;;2.30;1.30;;;26.50;90.80;;;;;;5049620;28;20452;-69
2022/07/26 10:33:54;;;;;;;3.43;1.20;;;26.60;91.70;;;;;;5050349;28;20451;-69
2022/07/26 10:36:22;;;;;;;2.53;1.30;;;26.70;91.30;;;;;;5050059;28;20476;-69
2022/07/26 10:39:08;;;;;;;2.47;1.30;;;26.40;90.80;;;;;;5050284;28;20444;-69
2022/07/26 10:41:39;;;;;;;3.30;1.23;;;26.60;91.50;;;;;;5049591;28;20440;-69
2022/07/26 10:44:22;;;;;;;3.17;1.50;;;27.00;90.70;;;;;;5050388;28;20510;-67
2022/07/26 10:46:57;;;;;;;3.93;1.83;;;27.30;89.60;;;;;;5050192;28;20459;-69
2022/07/26 10:49:30;;;;;;;3.00;1.37;;;26.90;88.50;;;;;;5049914;28;20450;-69
2022/07/26 10:52:22;;;;;;;2.67;1.30;;;26.80;89.90;;;;;;5049563;28;20462;-69
2022/07/26 10:55:06;;;;;;;6.83;1.87;;;26.70;88.10;;;;;;5044128;28;20458;-69
2022/07/26 10:57:35;;;;;;;3.50;1.40;;;26.60;87.80;;;;;;5049851;28;20439;-69
2022/07/26 11:00:09;;;;;;;2.77;1.40;;;26.80;88.80;;;;;;5049355;28;20459;-69
2022/07/26 11:02:36;;;;;;;3.80;1.50;;;26.90;86.90;;;;;;5050126;28;20531;-69
2022/07/26 11:05:11;;;;;;;3.50;1.63;;;26.70;87.20;;;;;;5049711;28;20484;-68
2022/07/26 11:07:49;;;;;;;2.10;1.10;;;27.00;87.00;;;;;;5049961;28;20451;-69
2022/07/26 11:10:15;;;;;;;4.20;1.10;;;27.10;84.40;;;;;;5049179;28;20474;-70
2022/07/26 11:12:42;;;;;;;3.20;1.50;;;27.10;83.90;;;;;;5050005;28;20456;-69
2022/07/26 11:15:19;;;;;;;4.07;1.20;;;27.40;85.00;;;;;;5049508;28;20481;-68
2022/07/26 11:17:45;;;;;;;3.37;1.47;;;27.40;84.00;;;;;;5049756;28;20962;-69
2022/07/26 11:20:25;;;;;;;5.00;1.30;;;27.60;84.40;;;;;;5049032;28;20456;-69
2022/07/26 11:22:51;;;;;;;3.07;1.33;;;27.70;82.70;;;;;;5049739;28;20952;-69
2022/07/26 11:25:21;;;;;;;2.40;1.20;;;27.50;81.40;;;;;;5049265;28;20494;-69
2022/07/26 11:27:59;;;;;;;2.33;1.33;;;27.50;81.40;;;;;;5050058;28;20451;-70
2022/07/26 11:30:27;;;;;;;4.13;1.13;;;27.70;81.80;;;;;;5048841;28;21090;-69
2022/07/26 11:32:57;;;;;;;3.30;1.20;;;28.30;79.70;;;;;;5049508;28;20444;-69
2022/07/26 11:35:24;;;;;;;2.57;1.20;;;28.10;79.30;;;;;;5049706;28;20483;-68
2022/07/26 11:37:53;;;;;;;2.33;1.30;;;27.40;81.10;;;;;;5054167;28;20490;-68
2022/07/26 11:40:41;;;;;;;4.37;1.20;;;27.10;79.50;;;;;;5057404;28;20971;-69
2022/07/26 11:43:08;;;;;;;2.20;1.10;;;27.00;78.50;;;;;;5057782;28;20455;-68
2022/07/26 11:45:36;;;;;;;2.30;1.10;;;27.10;79.10;;;;;;5057409;28;20479;-69
2022/07/26 11:48:04;;;;;;;4.03;1.43;;;27.40;78.40;;;;;;5062624;28;20451;-68
2022/07/26 11:50:31;;;;;;;5.03;1.30;;;27.80;77.10;;;;;;5062853;28;20432;-69
2022/07/26 11:52:58;;;;;;;3.37;1.13;;;28.10;75.30;;;;;;5069322;28;20443;-68
2022/07/26 11:55:26;;;;;;;2.40;1.00;;;28.00;75.80;;;;;;5069095;28;20471;-70
2022/07/26 11:57:54;;;;;;;3.73;1.20;;;28.40;76.30;;;;;;5069170;28;20528;-67
2022/07/26 12:00:22;;;;;;;2.53;1.20;;;28.80;74.10;;;;;;5068586;28;20453;-69
2022/07/26 12:02:50;;;;;;;1.90;0.83;;;29.10;74.00;;;;;;5069507;28;20469;-68
2022/07/26 12:05:19;;;;;;;3.53;1.30;;;29.10;71.20;;;;;;5069003;28;20487;-70
2022/07/26 12:07:54;;;;;;;3.87;1.27;;;28.70;70.80;;;;;;5063948;28;20493;-69
2022/07/26 12:10:21;;;;;;;2.20;0.90;;;28.70;70.70;;;;;;5067375;28;20442;-69
2022/07/26 12:12:48;;;;;;;3.00;1.00;;;29.00;71.60;;;;;;5063784;28;20450;-69
2022/07/26 12:15:15;;;;;;;2.30;1.50;;;29.10;69.80;;;;;;5071840;28;20988;-68
2022/07/26 12:18:01;;;;;;;4.27;1.57;;;28.90;69.30;;;;;;5064536;28;20448;-69
2022/07/26 12:20:28;;;;;;;3.03;1.13;;;27.90;71.40;;;;;;5052549;28;20450;-70
2022/07/26 12:22:56;;;;;;;3.03;1.10;;;28.10;74.10;;;;;;5064195;28;20447;-67
2022/07/26 12:25:26;;;;;;;2.20;1.00;;;28.40;71.70;;;;;;5070999;28;20483;-68
2022/07/26 12:27:54;;;;;;;2.50;1.23;;;28.20;70.30;;;;;;5064133;28;20431;-66
2022/07/26 12:30:21;;;;;;;2.00;1.20;;;28.00;70.90;;;;;;5072044;28;20447;-69
2022/07/26 12:32:50;;;;;;;3.40;1.47;;;28.30;70.50;;;;;;5067135;28;20452;-69
2022/07/26 12:35:31;;;;;;;3.10;1.07;;;28.70;69.90;;;;;;5065004;28;20470;-70
2022/07/26 12:37:58;;;;;;;3.63;1.00;;;28.50;67.90;;;;;;5063072;28;20502;-68
2022/07/26 12:40:26;;;;;;;2.10;1.07;;;28.30;68.40;;;;;;5065738;28;20437;-69
2022/07/26 12:42:56;;;;;;;3.83;1.10;;;27.90;68.10;;;;;;5066125;28;20869;-69
2022/07/26 12:45:25;;;;;;;4.23;1.03;;;27.20;71.70;;;;;;5062473;28;20486;-69
2022/07/26 12:47:53;;;;;;;3.73;1.10;;;26.70;71.70;;;;;;5062055;28;20826;-68
2022/07/26 12:50:23;;;;;;;3.90;0.90;;;27.20;71.70;;;;;;5052069;28;20455;-69
2022/07/26 12:52:50;;;;;;;2.13;1.20;;;27.40;71.00;;;;;;5052428;28;20450;-68